Blessing Sw — 3FIP7 — position and weather

sailwx.info

Track history (hours):
 
Tides and Currents Weather Stations Pressure Air Temp Water Temp Dewpoint Dewpoint Depression Visibility Wind Speed Wind Dir Waves Ship Positions

Blessing Sw

Last reported at 2014-Oct-02 15:30 UTC. Time now 2014-Nov-01 14:10 UTC.
Position N 22°21' E 120°01'.
Warning: this ship's position is 29 days out of date.

Length 171 m; draft 9.5 m.

Type: Cargo ship. MMSI: 372085000.

Date/timePositionNaut miles runAvg speedWind from/ knotsBaromVisibWave heightAir tempDewpointWater temp
2014-Oct-02 15:30N 22°21' E 120°01'1213.2
2014-Oct-02 14:33N 22°31' E 120°09'10 9.7
2014-Oct-02 13:33N 22°33' E 120°19'2 2.2
2014-Oct-02 12:28N 22°35' E 120°18'0 0.0
2014-Oct-02 11:28N 22°35' E 120°18'0 0.0
2014-Oct-02 10:28N 22°35' E 120°18'0 0.0
2014-Oct-02 09:28N 22°35' E 120°18'0 0.0
2014-Oct-02 07:16N 22°35' E 120°18'0 0.0
2014-Oct-02 06:04N 22°35' E 120°18'0 0.0
2014-Oct-02 04:16N 22°35' E 120°18'0 0.0
2014-Oct-02 03:10N 22°35' E 120°18'0 0.0
2014-Oct-02 02:28N 22°35' E 120°18'0 0.0
2014-Oct-02 00:28N 22°35' E 120°18'0 0.0
2014-Oct-01 23:28N 22°35' E 120°18'0 0.0
2014-Oct-01 22:28N 22°35' E 120°18'0 0.0
2014-Oct-01 21:28N 22°35' E 120°18'0 0.0
2014-Oct-01 20:28N 22°35' E 120°18'0 0.0
2014-Oct-01 19:28N 22°35' E 120°18'0 0.0
2014-Oct-01 18:28N 22°35' E 120°18'0 0.0
2014-Oct-01 17:28N 22°35' E 120°18'0 0.0
2014-Oct-01 16:28N 22°35' E 120°18'0 0.0
2014-Oct-01 15:22N 22°35' E 120°18'0 0.0
2014-Oct-01 14:28N 22°35' E 120°18'0 0.0
2014-Oct-01 13:28N 22°35' E 120°18'0 0.0
2014-Oct-01 12:28N 22°35' E 120°18'0 0.0
2014-Oct-01 11:28N 22°35' E 120°18'0 0.0
2014-Oct-01 06:28N 22°35' E 120°18'3 3.5
2014-Oct-01 05:33N 22°37' E 120°15'2 1.9
2014-Oct-01 04:33N 22°36' E 120°13'0 0.1
2014-Oct-01 03:33N 22°36' E 120°13'0 0.1
2014-Oct-01 02:33N 22°36' E 120°13'0 0.0
2014-Oct-01 01:33N 22°36' E 120°13'0 0.2
2014-Oct-01 00:33N 22°36' E 120°13'6 6.4
2014-Sep-30 23:33N 22°41' E 120°08'  
Track history (hours):
 
Tides and Currents Weather Stations Pressure Air Temp Water Temp Dewpoint Dewpoint Depression Visibility Wind Speed Wind Dir Waves Ship Positions

Blessing Sw

Last reported at 2014-Oct-02 15:30 UTC. Time now 2014-Nov-01 14:10 UTC.
Position N 22°21' E 120°01'.
Warning: this ship's position is 29 days out of date.

Length 171 m; draft 9.5 m.

Type: Cargo ship. MMSI: 372085000.

Date/timePositionNaut miles runAvg speedWind from/ knotsBaromVisibWave heightAir tempDewpointWater temp
2014-Oct-02 15:30N 22°21' E 120°01'1213.2
2014-Oct-02 14:33N 22°31' E 120°09'10 9.7
2014-Oct-02 13:33N 22°33' E 120°19'2 2.2
2014-Oct-02 12:28N 22°35' E 120°18'0 0.0
2014-Oct-02 11:28N 22°35' E 120°18'0 0.0
2014-Oct-02 10:28N 22°35' E 120°18'0 0.0
2014-Oct-02 09:28N 22°35' E 120°18'0 0.0
2014-Oct-02 07:16N 22°35' E 120°18'0 0.0
2014-Oct-02 06:04N 22°35' E 120°18'0 0.0
2014-Oct-02 04:16N 22°35' E 120°18'0 0.0
2014-Oct-02 03:10N 22°35' E 120°18'0 0.0
2014-Oct-02 02:28N 22°35' E 120°18'0 0.0
2014-Oct-02 00:28N 22°35' E 120°18'0 0.0
2014-Oct-01 23:28N 22°35' E 120°18'0 0.0
2014-Oct-01 22:28N 22°35' E 120°18'0 0.0
2014-Oct-01 21:28N 22°35' E 120°18'0 0.0
2014-Oct-01 20:28N 22°35' E 120°18'0 0.0
2014-Oct-01 19:28N 22°35' E 120°18'0 0.0
2014-Oct-01 18:28N 22°35' E 120°18'0 0.0
2014-Oct-01 17:28N 22°35' E 120°18'0 0.0
2014-Oct-01 16:28N 22°35' E 120°18'0 0.0
2014-Oct-01 15:22N 22°35' E 120°18'0 0.0
2014-Oct-01 14:28N 22°35' E 120°18'0 0.0
2014-Oct-01 13:28N 22°35' E 120°18'0 0.0
2014-Oct-01 12:28N 22°35' E 120°18'0 0.0
2014-Oct-01 11:28N 22°35' E 120°18'0 0.0
2014-Oct-01 06:28N 22°35' E 120°18'3 3.5
2014-Oct-01 05:33N 22°37' E 120°15'2 1.9
2014-Oct-01 04:33N 22°36' E 120°13'0 0.1
2014-Oct-01 03:33N 22°36' E 120°13'0 0.1
2014-Oct-01 02:33N 22°36' E 120°13'0 0.0
2014-Oct-01 01:33N 22°36' E 120°13'0 0.2
2014-Oct-01 00:33N 22°36' E 120°13'6 6.4
2014-Sep-30 23:33N 22°41' E 120°08'  

Dump ship's entire track history